createdAt,value
2019-06-07T00:01:00.106Z,208.93
2019-06-07T00:03:30.239Z,208.83
2019-06-07T00:05:59.375Z,209.27
2019-06-07T00:08:29.189Z,207.03
2019-06-07T00:10:58.162Z,205.47
2019-06-07T00:13:26.662Z,206.90
2019-06-07T00:15:55.158Z,209.23
2019-06-07T00:18:25.839Z,212.33
2019-06-07T00:20:53.907Z,208.57
2019-06-07T00:23:23.086Z,214.80
2019-06-07T00:25:51.714Z,205.83
2019-06-07T00:28:20.340Z,206.70
2019-06-07T00:30:51.929Z,210.20
2019-06-07T00:33:23.537Z,207.87
2019-06-07T00:35:49.195Z,201.80
2019-06-07T00:38:20.423Z,210.07
2019-06-07T00:40:47.565Z,198.87
2019-06-07T00:43:17.594Z,206.93
2019-06-07T00:45:46.158Z,196.20
2019-06-07T00:48:19.561Z,200.13
2019-06-07T00:50:45.002Z,194.50
2019-06-07T00:53:17.674Z,193.73
2019-06-07T00:55:43.757Z,207.17
2019-06-07T00:58:13.593Z,193.77
2019-06-07T01:00:42.479Z,193.87
2019-06-07T01:03:12.588Z,191.93
2019-06-07T01:05:41.172Z,196.93
2019-06-07T01:08:10.626Z,199.83
2019-06-07T01:10:52.808Z,196.93
2019-06-07T01:13:09.029Z,205.80
2019-06-07T01:15:37.449Z,229.33
2019-06-07T01:18:36.102Z,238.13
2019-06-07T01:20:36.134Z,242.80
2019-06-07T01:23:04.631Z,239.43
2019-06-07T01:25:33.187Z,247.73
2019-06-07T01:28:01.695Z,245.77
2019-06-07T01:30:30.628Z,240.10
2019-06-07T01:32:59.744Z,237.03
2019-06-07T01:35:29.979Z,248.03
2019-06-07T01:37:58.367Z,258.90
2019-06-07T01:40:30.344Z,256.67
2019-06-07T01:42:56.989Z,254.60
2019-06-07T01:45:26.961Z,249.40
2019-06-07T01:47:55.760Z,252.93
2019-06-07T01:50:26.883Z,257.60
2019-06-07T01:52:54.318Z,256.93
2019-06-07T01:55:24.970Z,250.03
2019-06-07T01:57:52.935Z,243.70
2019-06-07T02:00:23.233Z,244.07
2019-06-07T02:02:51.714Z,227.03
2019-06-07T02:05:21.563Z,214.97
2019-06-07T02:07:50.018Z,237.83
2019-06-07T02:10:20.429Z,228.87
2019-06-07T02:12:49.799Z,230.37
2019-06-07T02:15:21.348Z,232.00
2019-06-07T02:17:48.503Z,233.33
2019-06-07T02:20:17.010Z,230.97
2019-06-07T02:22:45.434Z,248.20
2019-06-07T02:25:37.085Z,236.67
2019-06-07T02:27:44.694Z,230.40
2019-06-07T02:32:43.459Z,236.77
2019-06-07T02:35:11.977Z,231.83
2019-06-07T02:37:40.478Z,230.23
2019-06-07T02:40:09.203Z,231.70
2019-06-07T02:42:42.251Z,231.00
2019-06-07T02:45:10.793Z,225.40
2019-06-07T02:47:40.231Z,235.33
2019-06-07T02:50:11.485Z,230.50
2019-06-07T02:52:41.623Z,243.27
2019-06-07T02:55:10.978Z,239.90
2019-06-07T02:57:41.653Z,233.50
2019-06-07T03:00:40.697Z,235.20
2019-06-07T03:02:43.167Z,250.33
2019-06-07T03:05:11.605Z,235.73
2019-06-07T03:07:44.881Z,237.73
2019-06-07T03:10:10.471Z,232.23
2019-06-07T03:12:40.665Z,236.07
2019-06-07T03:15:10.828Z,231.80
2019-06-07T03:17:44.475Z,237.43
2019-06-07T03:20:15.584Z,232.23
2019-06-07T03:22:44.082Z,238.37
2019-06-07T03:25:12.629Z,234.77
2019-06-07T03:27:49.125Z,232.73
2019-06-07T03:30:36.321Z,233.10
2019-06-07T03:32:47.308Z,233.10
2019-06-07T03:35:11.564Z,232.50
2019-06-07T03:37:42.675Z,234.53
2019-06-07T03:40:10.169Z,237.97
2019-06-07T03:42:40.121Z,235.07
2019-06-07T03:45:09.262Z,237.27
2019-06-07T03:47:41.388Z,222.63
2019-06-07T03:50:07.966Z,228.00
2019-06-07T03:52:40.527Z,238.60
2019-06-07T03:55:06.898Z,240.23
2019-06-07T03:58:23.844Z,234.13
2019-06-07T04:00:08.527Z,237.40
2019-06-07T04:02:40.807Z,242.33
2019-06-07T04:05:07.527Z,244.87
2019-06-07T04:07:36.927Z,240.43
2019-06-07T04:10:08.977Z,240.33
2019-06-07T04:12:41.338Z,242.20
2019-06-07T04:15:08.562Z,238.10
2019-06-07T04:17:41.159Z,238.87
2019-06-07T04:20:07.632Z,242.70
2019-06-07T04:22:39.744Z,249.17
2019-06-07T04:25:08.519Z,242.07
2019-06-07T04:27:39.324Z,244.13
2019-06-07T04:30:08.370Z,239.77
2019-06-07T04:32:39.652Z,238.10
2019-06-07T04:35:07.319Z,241.00
2019-06-07T04:37:39.659Z,238.43
2019-06-07T04:40:09.434Z,240.23
2019-06-07T04:42:41.775Z,235.07
2019-06-07T04:45:32.472Z,233.57
2019-06-07T04:47:42.411Z,236.43
2019-06-07T04:50:11.353Z,236.77
2019-06-07T04:52:42.749Z,238.53
2019-06-07T04:55:10.266Z,244.93
2019-06-07T04:57:41.604Z,243.17
2019-06-07T05:00:46.253Z,244.10
2019-06-07T05:02:40.934Z,253.37
2019-06-07T05:05:09.463Z,227.73
2019-06-07T05:07:39.986Z,232.23
2019-06-07T05:10:08.080Z,228.70
2019-06-07T05:12:40.451Z,227.33
2019-06-07T05:15:06.732Z,227.90
2019-06-07T05:17:37.217Z,238.27
2019-06-07T05:20:06.548Z,229.50
2019-06-07T05:22:40.866Z,238.60
2019-06-07T05:25:05.991Z,233.80
2019-06-07T05:27:37.938Z,230.80
2019-06-07T05:30:22.957Z,239.13
2019-06-07T05:32:45.187Z,234.27
2019-06-07T05:35:09.179Z,239.53
2019-06-07T05:37:38.258Z,243.77
2019-06-07T05:40:08.060Z,240.50
2019-06-07T05:42:39.154Z,262.00
2019-06-07T05:45:08.464Z,231.80
2019-06-07T05:47:40.895Z,230.60
2019-06-07T05:50:37.874Z,240.77
2019-06-07T05:52:40.478Z,226.43
2019-06-07T05:55:07.653Z,234.47
2019-06-07T05:57:40.335Z,216.17
2019-06-07T06:00:07.525Z,216.17
2019-06-07T06:02:56.738Z,214.50
2019-06-07T06:05:06.907Z,212.20
2019-06-07T06:07:38.691Z,208.60
2019-06-07T06:10:08.090Z,217.10
2019-06-07T06:12:40.836Z,219.93
2019-06-07T06:15:07.338Z,217.73
2019-06-07T06:17:37.896Z,210.47
2019-06-07T06:20:07.523Z,211.70
2019-06-07T06:22:37.428Z,218.47
2019-06-07T06:28:08.127Z,213.23
2019-06-07T06:30:09.562Z,213.83
2019-06-07T06:32:48.845Z,214.67
2019-06-07T06:35:09.321Z,212.67
2019-06-07T06:37:41.615Z,239.13
2019-06-07T06:40:31.852Z,261.73
2019-06-07T06:43:00.419Z,233.00
2019-06-07T06:45:28.914Z,214.37
2019-06-07T06:47:57.479Z,217.53
2019-06-07T06:50:26.442Z,223.00
2019-06-07T06:52:55.121Z,234.50
2019-06-07T06:55:23.682Z,228.57
2019-06-07T06:57:53.026Z,237.23
2019-06-07T07:00:48.403Z,250.77
2019-06-07T07:03:47.632Z,255.90
2019-06-07T07:05:40.728Z,223.53
2019-06-07T07:08:09.324Z,224.83
2019-06-07T07:10:45.990Z,215.17
2019-06-07T07:13:15.254Z,225.57
2019-06-07T07:15:46.851Z,214.73
2019-06-07T07:18:13.587Z,224.67
2019-06-07T07:20:43.556Z,212.37
2019-06-07T07:23:13.026Z,224.53
2019-06-07T07:25:43.496Z,231.77
2019-06-07T07:28:11.823Z,232.10
2019-06-07T07:30:52.562Z,237.63
2019-06-07T07:33:19.411Z,251.33
2019-06-07T07:36:10.762Z,272.60
2019-06-07T07:38:18.194Z,244.13
2019-06-07T07:41:14.019Z,229.33
2019-06-07T07:43:16.891Z,233.20
2019-06-07T07:45:50.499Z,229.32
2019-06-07T07:48:18.421Z,22.80
2019-06-07T07:50:49.795Z,55.00
2019-06-07T07:53:16.318Z,124.45
2019-06-07T07:55:50.480Z,151.43
2019-06-07T07:58:16.661Z,105.10
2019-06-07T08:01:00.247Z,176.50
2019-06-07T08:03:15.544Z,211.32
2019-06-07T08:05:45.615Z,203.37
2019-06-07T08:08:14.251Z,125.78
2019-06-07T08:10:42.813Z,22.45
2019-06-07T08:13:24.502Z,145.57
2019-06-07T08:15:41.511Z,122.33
2019-06-07T08:18:10.034Z,53.00
2019-06-07T08:20:38.466Z,155.67
2019-06-07T08:23:06.960Z,23.30
2019-06-07T08:25:36.463Z,198.47
2019-06-07T08:28:05.048Z,175.37
2019-06-07T08:30:56.865Z,209.50
2019-06-07T08:33:24.521Z,210.05
2019-06-07T08:40:34.532Z,67.80
2019-06-07T08:43:18.141Z,17.20
2019-06-07T08:45:33.150Z,14.80
2019-06-07T08:48:05.374Z,9.48
2019-06-07T08:50:31.833Z,15.13
2019-06-07T08:53:11.288Z,7.53
2019-06-07T08:55:30.634Z,8.25
2019-06-07T08:58:04.292Z,6.28
2019-06-07T09:00:45.317Z,8.20
2019-06-07T09:03:05.168Z,8.80
2019-06-07T09:05:29.821Z,18.40
2019-06-07T09:08:21.056Z,11.97
2019-06-07T09:10:28.554Z,8.63
2019-06-07T09:13:00.386Z,8.43
2019-06-07T09:15:27.091Z,8.48
2019-06-07T09:18:34.922Z,10.05
2019-06-07T09:20:37.011Z,6.47
2019-06-07T09:23:07.208Z,7.50
2019-06-07T09:25:30.639Z,8.33
2019-06-07T09:28:07.941Z,6.83
2019-06-07T09:30:44.481Z,6.75
2019-06-07T09:33:13.030Z,6.50
2019-06-07T09:35:41.651Z,9.23
2019-06-07T09:38:23.227Z,13.62
2019-06-07T09:40:40.386Z,6.15
2019-06-07T09:43:54.234Z,6.75
2019-06-07T09:45:39.106Z,6.37
2019-06-07T09:48:13.896Z,10.35
2019-06-07T09:50:37.826Z,8.18
2019-06-07T09:53:19.042Z,5.03
2019-06-07T09:55:36.662Z,4.58
2019-06-07T09:58:47.678Z,7.83
2019-06-07T10:00:41.439Z,7.65
2019-06-07T10:03:16.817Z,12.68
2019-06-07T10:05:35.828Z,4.20
2019-06-07T10:08:25.657Z,4.55
2019-06-07T10:13:04.145Z,14.50
2019-06-07T10:15:33.044Z,16.82
2019-06-07T10:18:02.684Z,19.25
2019-06-07T10:20:31.435Z,14.98
2019-06-07T10:23:01.482Z,8.55
2019-06-07T10:25:30.342Z,12.78
2019-06-07T10:28:00.056Z,22.93
2019-06-07T10:30:29.694Z,17.85
2019-06-07T10:32:58.244Z,13.08
2019-06-07T10:35:26.818Z,14.13
2019-06-07T10:37:58.108Z,16.50
2019-06-07T10:40:25.717Z,12.78
2019-06-07T10:42:54.210Z,10.60
2019-06-07T10:45:22.854Z,16.50
2019-06-07T10:47:51.327Z,29.07
2019-06-07T10:50:19.925Z,11.70
2019-06-07T10:52:48.601Z,7.47
2019-06-07T10:55:18.174Z,7.65
2019-06-07T10:57:46.584Z,22.85
2019-06-07T11:00:18.206Z,17.10
2019-06-07T11:02:46.846Z,10.90
2019-06-07T11:05:15.573Z,11.40
2019-06-07T11:07:44.190Z,14.47
2019-06-07T11:10:18.806Z,12.15
2019-06-07T11:12:43.362Z,4.90
2019-06-07T11:15:13.069Z,5.30
2019-06-07T11:17:41.693Z,10.98
2019-06-07T11:20:10.433Z,10.58
2019-06-07T11:22:39.150Z,12.65
2019-06-07T11:25:09.082Z,10.68
2019-06-07T11:27:37.934Z,5.92
2019-06-07T11:30:08.284Z,8.63
2019-06-07T11:32:37.918Z,7.45
2019-06-07T11:35:11.693Z,10.85
2019-06-07T11:37:39.941Z,13.18
2019-06-07T11:40:27.806Z,11.70
2019-06-07T11:42:40.122Z,14.43
2019-06-07T11:45:10.224Z,10.50
2019-06-07T11:47:38.832Z,7.28
2019-06-07T11:50:07.692Z,8.78
2019-06-07T11:52:36.168Z,8.55
2019-06-07T11:55:06.607Z,8.43
2019-06-07T11:57:35.382Z,7.70
2019-06-07T12:00:11.504Z,9.00
2019-06-07T12:02:40.357Z,11.83
2019-06-07T12:05:10.353Z,10.55
2019-06-07T12:07:40.174Z,8.58
2019-06-07T12:10:08.732Z,11.45
2019-06-07T12:12:37.316Z,8.33
2019-06-07T12:15:08.682Z,9.10
2019-06-07T12:17:37.372Z,14.53
2019-06-07T12:20:08.606Z,6.30
2019-06-07T12:22:36.418Z,8.73
2019-06-07T12:25:07.031Z,8.55
2019-06-07T12:27:35.531Z,10.13
2019-06-07T12:30:11.216Z,10.98
2019-06-07T12:32:37.388Z,9.00
2019-06-07T12:35:09.788Z,6.67
2019-06-07T12:37:44.578Z,8.48
2019-06-07T12:40:08.980Z,9.53
2019-06-07T12:42:37.758Z,11.30
2019-06-07T12:45:06.760Z,6.85
2019-06-07T12:47:35.330Z,8.78
2019-06-07T12:50:05.842Z,8.25
2019-06-07T12:52:34.324Z,9.88
2019-06-07T12:55:03.005Z,6.25
2019-06-07T12:57:31.497Z,8.25
2019-06-07T12:59:59.972Z,10.72
2019-06-07T13:02:28.470Z,8.08
2019-06-07T13:04:57.001Z,5.58
2019-06-07T13:07:25.631Z,11.80
2019-06-07T13:09:54.179Z,10.90
2019-06-07T13:12:23.756Z,11.93
2019-06-07T13:14:52.465Z,8.48
2019-06-07T13:40:55.526Z,192.93
2019-06-07T13:43:23.710Z,214.27
2019-06-07T13:45:52.111Z,208.13
2019-06-07T13:48:21.164Z,418.60
2019-06-07T13:50:49.832Z,318.48
2019-06-07T13:53:18.977Z,310.40
2019-06-07T13:55:47.407Z,286.07
2019-06-07T13:58:15.898Z,232.87
2019-06-07T14:00:44.146Z,217.40
2019-06-07T14:03:12.462Z,282.80
2019-06-07T14:05:40.648Z,218.80
2019-06-07T14:08:09.211Z,222.97
2019-06-07T14:10:37.695Z,225.67
2019-06-07T14:13:06.254Z,221.43
2019-06-07T14:15:34.604Z,239.90
2019-06-07T14:18:03.175Z,236.93
2019-06-07T14:20:34.642Z,233.20
2019-06-07T14:23:01.484Z,229.70
2019-06-07T14:25:31.368Z,237.57
2019-06-07T14:28:00.130Z,225.03
